Time;durP1;ratioP1;P1;durP2;ratioP2;P2;SDS_P1;SDS_P2;PMS_P1;PMS_P2;Temp;Humidity;BMP_temperature;BMP_pressure;BME280_temperature;BME280_humidity;BME280_pressure;Samples;Min_cycle;Max_cycle;Signal;HPM_P1;HPM_P2
2021/04/23 00:02:19;;;;;;;9.90;5.17;;;4.70;99.90;;;;;;5033386;28;20222;-63
2021/04/23 00:04:45;;;;;;;11.83;5.33;;;4.60;99.90;;;;;;5033954;28;20180;-64
2021/04/23 00:07:11;;;;;;;13.37;5.47;;;4.60;99.90;;;;;;5033763;28;20203;-64
2021/04/23 00:09:37;;;;;;;14.07;5.97;;;4.50;99.90;;;;;;5034117;28;20171;-64
2021/04/23 00:12:09;;;;;;;9.83;5.17;;;4.50;99.90;;;;;;5033541;28;20175;-65
2021/04/23 00:14:47;;;;;;;13.37;5.50;;;4.40;99.90;;;;;;5034142;28;20743;-64
2021/04/23 00:17:14;;;;;;;10.37;5.20;;;4.40;99.90;;;;;;5033694;28;20199;-65
2021/04/23 00:19:40;;;;;;;9.33;5.87;;;4.40;99.90;;;;;;5034013;28;20267;-64
2021/04/23 00:22:07;;;;;;;13.33;6.57;;;4.40;99.90;;;;;;5033279;28;20186;-64
2021/04/23 00:24:34;;;;;;;11.50;6.50;;;4.30;99.90;;;;;;5033788;28;20667;-64
2021/04/23 00:27:01;;;;;;;13.50;7.03;;;4.30;99.90;;;;;;5033514;28;20214;-63
2021/04/23 00:29:27;;;;;;;11.50;6.03;;;4.20;99.90;;;;;;5033441;28;20199;-64
2021/04/23 00:34:39;;;;;;;10.97;6.53;;;4.20;99.90;;;;;;5033415;28;20237;-64
2021/04/23 00:37:04;;;;;;;15.40;6.23;;;4.10;99.90;;;;;;5033333;28;20196;-63
2021/04/23 00:39:30;;;;;;;10.90;7.07;;;4.10;99.90;;;;;;5033096;28;20237;-63
2021/04/23 00:41:57;;;;;;;12.37;6.77;;;4.00;99.90;;;;;;5033196;28;20214;-63
2021/04/23 00:44:22;;;;;;;13.60;7.33;;;4.00;99.90;;;;;;5032944;28;20206;-64
2021/04/23 00:46:48;;;;;;;15.23;7.67;;;3.90;99.90;;;;;;5033145;28;20199;-63
2021/04/23 00:49:14;;;;;;;14.77;7.97;;;3.80;99.90;;;;;;5033188;28;20179;-63
2021/04/23 00:51:56;;;;;;;19.37;8.33;;;3.90;99.90;;;;;;5033062;28;20185;-65
2021/04/23 00:54:23;;;;;;;18.07;7.27;;;3.90;99.90;;;;;;5033094;28;20183;-64
2021/04/23 00:56:49;;;;;;;15.23;7.23;;;3.80;99.90;;;;;;5033241;28;20199;-64
2021/04/23 00:59:15;;;;;;;20.17;8.10;;;3.80;99.90;;;;;;5033156;28;20191;-64
2021/04/23 01:02:07;;;;;;;15.27;7.53;;;3.70;99.90;;;;;;5032766;28;20188;-63
2021/04/23 01:04:32;;;;;;;20.40;7.90;;;3.70;99.90;;;;;;5032848;28;20179;-63
2021/04/23 01:06:59;;;;;;;13.73;7.93;;;3.70;99.90;;;;;;5032943;28;20554;-64
2021/04/23 01:09:28;;;;;;;17.57;8.00;;;3.60;99.90;;;;;;5032696;28;20190;-63
2021/04/23 01:11:56;;;;;;;12.30;7.40;;;3.60;99.90;;;;;;5032741;28;20171;-64
2021/04/23 01:14:21;;;;;;;14.03;6.93;;;3.60;99.90;;;;;;5031839;28;20267;-64
2021/04/23 01:16:48;;;;;;;14.53;7.20;;;3.50;99.90;;;;;;5032705;28;20661;-63
2021/04/23 01:19:19;;;;;;;16.37;7.77;;;3.50;99.90;;;;;;5032584;28;20182;-64
2021/04/23 01:21:45;;;;;;;13.70;7.20;;;3.40;99.90;;;;;;5032143;28;20194;-64
2021/04/23 01:24:12;;;;;;;11.83;6.90;;;3.40;99.90;;;;;;5032515;28;20207;-62
2021/04/23 01:26:41;;;;;;;12.50;7.13;;;3.30;99.90;;;;;;5032137;28;20211;-63
2021/04/23 01:29:09;;;;;;;16.67;7.73;;;3.30;99.90;;;;;;5032557;28;20254;-62
2021/04/23 01:31:40;;;;;;;18.27;7.77;;;3.30;99.90;;;;;;5031558;28;20176;-63
2021/04/23 01:34:11;;;;;;;13.03;7.30;;;3.20;99.90;;;;;;5032580;28;20191;-63
2021/04/23 01:36:38;;;;;;;13.20;7.13;;;3.20;99.90;;;;;;5031991;28;20562;-62
2021/04/23 01:39:09;;;;;;;20.10;7.70;;;3.20;99.90;;;;;;5032523;28;20180;-63
2021/04/23 01:41:35;;;;;;;13.13;7.27;;;3.10;99.90;;;;;;5031632;28;20593;-64
2021/04/23 01:44:03;;;;;;;13.43;7.83;;;3.10;99.90;;;;;;5032108;28;20192;-64
2021/04/23 01:46:33;;;;;;;13.40;6.83;;;3.10;99.90;;;;;;5032099;28;20263;-64
2021/04/23 01:49:03;;;;;;;12.10;7.10;;;3.10;99.90;;;;;;5032071;28;20214;-63
2021/04/23 01:51:29;;;;;;;11.40;7.13;;;3.10;99.90;;;;;;5031819;28;20174;-64
2021/04/23 01:53:55;;;;;;;18.73;8.07;;;3.10;99.90;;;;;;5031920;28;20182;-64
2021/04/23 01:56:21;;;;;;;25.90;8.43;;;3.10;99.90;;;;;;5031958;28;20226;-64
2021/04/23 01:58:47;;;;;;;15.70;7.50;;;3.00;99.90;;;;;;5031205;28;20182;-63
2021/04/23 02:01:14;;;;;;;16.53;7.73;;;3.10;99.90;;;;;;5031399;28;20176;-64
2021/04/23 02:03:41;;;;;;;14.00;6.90;;;3.10;99.90;;;;;;5031778;28;20650;-64
2021/04/23 02:06:09;;;;;;;14.20;7.63;;;3.00;99.90;;;;;;5031891;28;20688;-64
2021/04/23 02:08:35;;;;;;;19.03;7.83;;;3.00;99.90;;;;;;5031519;28;20174;-64
2021/04/23 02:11:13;;;;;;;15.43;7.87;;;3.00;99.90;;;;;;5031682;28;20171;-64
2021/04/23 02:13:40;;;;;;;13.53;6.80;;;3.00;99.90;;;;;;5031608;28;20182;-64
2021/04/23 02:16:07;;;;;;;15.73;7.70;;;2.90;99.90;;;;;;5031790;28;20191;-64
2021/04/23 02:18:33;;;;;;;12.60;6.50;;;2.90;99.90;;;;;;5031637;28;20175;-63
2021/04/23 02:20:59;;;;;;;15.37;7.43;;;2.90;99.90;;;;;;5031362;28;20174;-64
2021/04/23 02:23:25;;;;;;;13.10;7.03;;;2.90;99.90;;;;;;5031634;28;20203;-64
2021/04/23 02:25:51;;;;;;;18.90;8.20;;;2.90;99.90;;;;;;5031306;28;20203;-63
2021/04/23 02:28:17;;;;;;;16.27;7.83;;;2.90;99.90;;;;;;5031466;28;20176;-64
2021/04/23 02:30:51;;;;;;;16.53;8.67;;;2.80;99.90;;;;;;5031034;28;20629;-64
2021/04/23 02:33:20;;;;;;;15.73;7.97;;;2.80;99.90;;;;;;5031613;28;20171;-64
2021/04/23 02:35:48;;;;;;;17.77;7.97;;;2.90;99.90;;;;;;5031334;28;20210;-65
2021/04/23 02:38:13;;;;;;;20.77;8.30;;;2.80;99.90;;;;;;5031484;28;20167;-63
2021/04/23 02:40:40;;;;;;;17.30;8.07;;;2.80;99.90;;;;;;5030935;28;20179;-64
2021/04/23 02:43:14;;;;;;;14.00;7.93;;;2.80;99.90;;;;;;5031547;28;20673;-64
2021/04/23 02:45:41;;;;;;;12.97;8.20;;;2.70;99.90;;;;;;5031313;28;20233;-63
2021/04/23 02:48:09;;;;;;;17.73;8.60;;;2.70;99.90;;;;;;5031478;28;20163;-64
2021/04/23 02:50:35;;;;;;;19.83;9.30;;;2.70;99.90;;;;;;5030732;28;20177;-64
2021/04/23 02:53:03;;;;;;;15.63;7.83;;;2.70;99.90;;;;;;5031385;28;20172;-63
2021/04/23 02:55:29;;;;;;;17.93;8.23;;;2.60;99.90;;;;;;5030165;28;20257;-64
2021/04/23 02:57:59;;;;;;;14.90;9.27;;;2.60;99.90;;;;;;5031446;28;20172;-64
2021/04/23 03:00:29;;;;;;;20.77;9.00;;;2.60;99.90;;;;;;5030787;28;20743;-64
2021/04/23 03:02:55;;;;;;;17.77;8.50;;;2.50;99.90;;;;;;5031211;28;20231;-64
2021/04/23 03:05:22;;;;;;;16.53;8.07;;;2.50;99.90;;;;;;5030832;28;20222;-64
2021/04/23 03:07:53;;;;;;;14.80;8.70;;;2.60;99.90;;;;;;5031204;28;20168;-64
2021/04/23 03:10:24;;;;;;;22.57;10.63;;;2.60;99.90;;;;;;5030611;28;20252;-64
2021/04/23 03:12:51;;;;;;;21.13;10.20;;;2.60;99.90;;;;;;5031092;28;20175;-64
2021/04/23 03:15:17;;;;;;;15.97;9.03;;;2.60;99.90;;;;;;5030633;28;20810;-63
2021/04/23 03:17:42;;;;;;;17.50;8.70;;;2.50;99.90;;;;;;5031092;28;20175;-64
2021/04/23 03:20:16;;;;;;;22.40;9.87;;;2.50;99.90;;;;;;5030622;28;20258;-64
2021/04/23 03:22:42;;;;;;;15.87;8.87;;;2.50;99.90;;;;;;5031084;28;20265;-64
2021/04/23 03:25:09;;;;;;;15.10;9.30;;;2.40;99.90;;;;;;5030803;28;20263;-63
2021/04/23 03:27:36;;;;;;;18.03;9.43;;;2.40;99.90;;;;;;5031553;28;20663;-65
2021/04/23 03:30:03;;;;;;;27.10;9.43;;;2.40;99.90;;;;;;5030660;28;20271;-65
2021/04/23 03:32:28;;;;;;;19.90;9.50;;;2.30;99.90;;;;;;5030913;28;20180;-66
2021/04/23 03:34:54;;;;;;;21.13;9.90;;;2.30;99.90;;;;;;5030692;28;20266;-65
2021/04/23 03:37:20;;;;;;;22.93;10.10;;;2.20;99.90;;;;;;5032687;28;20171;-66
2021/04/23 03:39:45;;;;;;;25.60;9.57;;;2.20;99.90;;;;;;5034093;28;20735;-66
2021/04/23 03:42:11;;;;;;;23.90;9.67;;;2.20;99.90;;;;;;5016671;28;20176;-65
2021/04/23 03:44:36;;;;;;;22.37;9.27;;;2.10;99.90;;;;;;5034139;28;20238;-65
2021/04/23 03:47:02;;;;;;;19.60;10.07;;;2.10;99.90;;;;;;5034565;28;20602;-66
2021/04/23 03:49:28;;;;;;;21.00;10.37;;;2.00;99.90;;;;;;5034474;28;20184;-64
2021/04/23 03:51:53;;;;;;;19.07;10.00;;;2.00;99.90;;;;;;5033914;28;20176;-66
2021/04/23 03:54:19;;;;;;;25.07;10.47;;;1.90;99.90;;;;;;5034316;28;20568;-65
2021/04/23 03:56:45;;;;;;;23.17;9.90;;;1.90;99.90;;;;;;5034039;28;20230;-65
2021/04/23 03:59:10;;;;;;;18.93;10.73;;;1.80;99.90;;;;;;5034201;28;20178;-65
2021/04/23 04:01:36;;;;;;;20.87;9.73;;;1.80;99.90;;;;;;5033499;28;20210;-64
2021/04/23 04:04:02;;;;;;;25.77;11.03;;;1.80;99.90;;;;;;5034220;28;20590;-66
2021/04/23 04:06:28;;;;;;;30.07;10.70;;;1.70;99.90;;;;;;5034120;28;20195;-65
2021/04/23 04:08:54;;;;;;;25.17;11.03;;;1.70;99.90;;;;;;5033931;28;20699;-66
2021/04/23 04:11:20;;;;;;;21.53;11.10;;;1.70;99.90;;;;;;5033569;28;20172;-66
2021/04/23 04:13:45;;;;;;;31.93;11.73;;;1.80;99.90;;;;;;5034022;28;20661;-65
2021/04/23 04:16:11;;;;;;;26.90;10.83;;;1.80;99.90;;;;;;5033841;28;20271;-65
2021/04/23 04:18:37;;;;;;;27.90;10.57;;;1.80;99.90;;;;;;5033650;28;20205;-66
2021/04/23 04:21:03;;;;;;;25.13;10.30;;;1.70;99.90;;;;;;5033633;28;20179;-64
2021/04/23 04:23:29;;;;;;;20.03;10.63;;;1.80;99.90;;;;;;5015971;28;20215;-64
2021/04/23 04:25:58;;;;;;;27.30;11.20;;;1.70;99.90;;;;;;5033747;28;20234;-66
2021/04/23 04:28:28;;;;;;;30.77;10.90;;;1.80;99.90;;;;;;5033524;28;20188;-66
2021/04/23 04:30:54;;;;;;;21.57;10.43;;;1.80;99.90;;;;;;5033124;28;20171;-66
2021/04/23 04:33:20;;;;;;;22.37;10.77;;;1.70;99.90;;;;;;5033653;28;20179;-66
2021/04/23 04:35:46;;;;;;;32.77;10.50;;;1.70;99.90;;;;;;5033384;28;20677;-66
2021/04/23 04:38:13;;;;;;;20.87;11.27;;;1.70;99.90;;;;;;5033538;28;20182;-65
2021/04/23 04:40:41;;;;;;;20.17;10.87;;;1.70;99.90;;;;;;5032869;28;20184;-64
2021/04/23 04:43:09;;;;;;;27.73;12.87;;;1.70;99.90;;;;;;5032593;28;20703;-66
2021/04/23 04:45:36;;;;;;;24.30;11.60;;;1.70;99.90;;;;;;5032977;28;20203;-66
2021/04/23 04:48:03;;;;;;;26.83;11.93;;;1.80;99.90;;;;;;5032567;28;20215;-65
2021/04/23 04:50:32;;;;;;;22.97;11.53;;;1.80;99.90;;;;;;5032752;28;20262;-65
2021/04/23 04:52:59;;;;;;;28.23;11.60;;;1.90;99.90;;;;;;5033824;28;20175;-64
2021/04/23 04:55:34;;;;;;;25.20;11.17;;;2.00;99.90;;;;;;5032709;28;20290;-65
2021/04/23 04:58:02;;;;;;;26.90;12.30;;;2.10;99.90;;;;;;5032938;28;20601;-66
2021/04/23 05:00:28;;;;;;;26.97;11.87;;;2.10;99.90;;;;;;5032638;28;20210;-65
2021/04/23 05:02:56;;;;;;;29.03;11.67;;;2.20;99.90;;;;;;5032820;28;20286;-65
2021/04/23 05:05:22;;;;;;;23.03;11.07;;;2.30;99.90;;;;;;5032326;28;20195;-66
2021/04/23 05:07:48;;;;;;;27.87;12.07;;;2.40;99.90;;;;;;5032579;28;20191;-65
2021/04/23 05:10:14;;;;;;;33.03;12.17;;;2.50;99.90;;;;;;5032246;28;20266;-64
2021/04/23 05:12:41;;;;;;;30.43;12.13;;;2.60;99.90;;;;;;5014600;28;20179;-64
2021/04/23 05:15:08;;;;;;;25.23;11.50;;;2.70;99.90;;;;;;5032261;28;20195;-65
2021/04/23 05:17:35;;;;;;;32.70;12.43;;;2.70;99.90;;;;;;5032717;28;20178;-65
2021/04/23 05:20:01;;;;;;;23.73;10.77;;;2.80;99.90;;;;;;5032472;28;20175;-65
2021/04/23 05:22:27;;;;;;;25.33;11.60;;;2.80;99.90;;;;;;5032511;28;20191;-66
2021/04/23 05:24:52;;;;;;;32.40;12.33;;;2.90;99.90;;;;;;5032593;28;20168;-65
2021/04/23 05:27:18;;;;;;;34.27;12.33;;;2.90;99.90;;;;;;5032694;28;20219;-66
2021/04/23 05:29:44;;;;;;;23.80;11.20;;;3.00;99.90;;;;;;5032374;28;20183;-63
2021/04/23 05:32:09;;;;;;;30.43;13.03;;;3.10;99.90;;;;;;5032119;28;20585;-66
2021/04/23 05:34:35;;;;;;;35.40;12.17;;;3.10;99.90;;;;;;5032535;28;20195;-66
2021/04/23 05:37:01;;;;;;;28.73;12.13;;;3.30;99.90;;;;;;5032000;28;20195;-65
2021/04/23 05:39:27;;;;;;;25.20;11.10;;;3.40;99.90;;;;;;5032197;28;20229;-66
2021/04/23 05:41:52;;;;;;;24.60;11.10;;;3.40;99.90;;;;;;5014192;28;20241;-66
2021/04/23 05:44:18;;;;;;;25.23;10.73;;;3.50;99.90;;;;;;5032038;28;20202;-65
2021/04/23 05:46:44;;;;;;;25.30;11.47;;;3.60;99.90;;;;;;5032159;28;20206;-66
2021/04/23 05:49:11;;;;;;;25.07;11.67;;;3.60;99.90;;;;;;5032170;28;20171;-65
2021/04/23 05:51:37;;;;;;;29.90;11.27;;;3.70;99.90;;;;;;5032116;28;20629;-66
2021/04/23 05:54:03;;;;;;;23.97;11.90;;;3.80;99.90;;;;;;5032227;28;20178;-66
2021/04/23 05:56:29;;;;;;;32.07;12.07;;;4.00;99.90;;;;;;5031567;28;20286;-65
2021/04/23 05:58:55;;;;;;;23.37;10.90;;;4.50;99.90;;;;;;5032141;28;20665;-64
2021/04/23 06:01:21;;;;;;;25.83;10.23;;;4.90;99.90;;;;;;5013071;28;20184;-64
2021/04/23 06:03:47;;;;;;;17.60;9.40;;;5.30;99.90;;;;;;5012008;28;20277;-64
2021/04/23 06:06:12;;;;;;;21.37;9.13;;;5.90;99.90;;;;;;5026558;28;20234;-65
2021/04/23 06:08:38;;;;;;;15.30;9.03;;;6.50;99.90;;;;;;5031361;28;20194;-65
2021/04/23 06:11:05;;;;;;;21.50;8.80;;;6.90;99.90;;;;;;5031350;28;20179;-65
2021/04/23 06:13:31;;;;;;;21.30;8.40;;;7.30;99.90;;;;;;5031296;28;20183;-66
2021/04/23 06:15:57;;;;;;;18.07;8.20;;;7.70;99.90;;;;;;5031452;28;20195;-65
2021/04/23 06:18:22;;;;;;;12.77;7.30;;;8.20;99.90;;;;;;5031465;28;20217;-65
2021/04/23 06:20:49;;;;;;;15.10;8.10;;;8.40;99.90;;;;;;5031387;28;20180;-65
2021/04/23 06:23:16;;;;;;;11.67;7.17;;;8.60;99.90;;;;;;5031251;28;20211;-65
2021/04/23 06:25:41;;;;;;;18.83;8.87;;;8.60;99.90;;;;;;5031982;28;20195;-64
2021/04/23 06:28:08;;;;;;;13.37;7.23;;;8.80;99.90;;;;;;5032003;28;20176;-64
2021/04/23 06:30:36;;;;;;;13.63;7.63;;;9.00;99.90;;;;;;5031227;28;20163;-64
2021/04/23 06:33:20;;;;;;;13.37;7.87;;;9.20;99.90;;;;;;5031310;28;20175;-64
2021/04/23 06:35:47;;;;;;;14.07;7.60;;;9.70;99.90;;;;;;5031508;28;20203;-62
2021/04/23 06:38:13;;;;;;;10.70;7.37;;;10.10;99.90;;;;;;5031629;28;20262;-68
2021/04/23 06:40:39;;;;;;;12.73;7.73;;;10.20;99.90;;;;;;5031063;28;20326;-64
2021/04/23 06:43:06;;;;;;;12.03;6.90;;;10.20;99.90;;;;;;5031437;28;20202;-64
2021/04/23 06:45:32;;;;;;;15.50;7.30;;;10.00;99.90;;;;;;5031523;28;20187;-67
2021/04/23 06:47:58;;;;;;;17.83;7.40;;;10.20;99.90;;;;;;5031694;28;20645;-68
2021/04/23 06:50:25;;;;;;;14.17;7.83;;;10.40;99.90;;;;;;5031501;28;20692;-66
2021/04/23 06:52:53;;;;;;;17.53;6.53;;;10.50;99.90;;;;;;5031450;28;20175;-64
2021/04/23 06:55:20;;;;;;;16.87;7.30;;;10.60;99.90;;;;;;5031557;28;20711;-64
2021/04/23 06:57:46;;;;;;;13.03;6.60;;;10.50;99.90;;;;;;5031230;28;20230;-63
2021/04/23 07:00:24;;;;;;;13.60;6.23;;;10.70;99.90;;;;;;5031214;28;20225;-64
2021/04/23 07:02:49;;;;;;;10.90;6.43;;;10.80;99.90;;;;;;5031022;28;20225;-65
2021/04/23 07:05:16;;;;;;;7.40;5.17;;;10.80;99.90;;;;;;5031233;28;20628;-64
2021/04/23 07:07:41;;;;;;;14.40;6.03;;;10.90;99.90;;;;;;5031333;28;20178;-64
2021/04/23 07:10:11;;;;;;;11.70;6.30;;;10.80;99.90;;;;;;5030604;28;20661;-65
2021/04/23 07:12:37;;;;;;;11.40;6.20;;;11.00;99.90;;;;;;5033587;28;20164;-64
2021/04/23 07:15:04;;;;;;;12.30;6.23;;;11.10;99.90;;;;;;5034929;28;20545;-65
2021/04/23 07:17:30;;;;;;;16.80;6.20;;;11.30;99.90;;;;;;5035126;28;20175;-65
2021/04/23 07:19:56;;;;;;;11.33;6.63;;;11.60;99.90;;;;;;5034864;28;20302;-65
2021/04/23 07:22:22;;;;;;;14.90;6.03;;;11.80;99.90;;;;;;5034944;28;20171;-64
2021/04/23 07:24:47;;;;;;;15.83;6.80;;;11.90;99.90;;;;;;5034629;28;20175;-65
2021/04/23 07:27:14;;;;;;;12.80;6.67;;;12.20;99.90;;;;;;5034579;28;20210;-65
2021/04/23 07:29:39;;;;;;;10.33;6.07;;;12.70;99.90;;;;;;5034630;28;20171;-63
2021/04/23 07:32:05;;;;;;;13.57;5.87;;;12.90;99.90;;;;;;5034433;28;20641;-63
2021/04/23 07:34:31;;;;;;;8.10;4.93;;;13.50;99.90;;;;;;5034650;28;20229;-63
2021/04/23 07:36:57;;;;;;;8.37;5.23;;;13.50;99.90;;;;;;5034310;28;20272;-64
2021/04/23 07:39:26;;;;;;;8.87;5.77;;;13.50;99.90;;;;;;5034457;28;20255;-64
2021/04/23 07:41:54;;;;;;;12.70;5.77;;;13.70;99.90;;;;;;5033775;28;20679;-63
2021/04/23 07:44:20;;;;;;;10.67;5.50;;;13.90;99.90;;;;;;5034241;28;20203;-63
2021/04/23 07:46:46;;;;;;;10.17;5.77;;;13.50;99.90;;;;;;5015106;28;20195;-63
2021/04/23 07:49:12;;;;;;;8.07;5.73;;;13.10;99.90;;;;;;5033753;28;20673;-63
2021/04/23 07:51:38;;;;;;;13.00;5.97;;;12.80;99.90;;;;;;5033992;28;20703;-63
2021/04/23 07:54:04;;;;;;;6.77;4.80;;;13.00;99.90;;;;;;5033938;28;20191;-63
2021/04/23 07:56:29;;;;;;;10.80;5.87;;;13.10;99.90;;;;;;5033751;28;20242;-64
2021/04/23 07:58:55;;;;;;;8.27;5.33;;;13.10;99.90;;;;;;5033621;28;20191;-63
2021/04/23 08:01:21;;;;;;;11.53;5.43;;;12.80;99.90;;;;;;5033646;28;20203;-63
2021/04/23 08:03:46;;;;;;;10.03;5.00;;;12.50;99.90;;;;;;5034158;28;20249;-63
2021/04/23 08:06:12;;;;;;;9.07;4.43;;;12.70;99.90;;;;;;5033849;28;20195;-64
2021/04/23 08:08:37;;;;;;;10.27;4.40;;;13.10;99.90;;;;;;5034101;28;20160;-63
2021/04/23 08:11:03;;;;;;;6.80;4.20;;;13.50;99.90;;;;;;5033530;28;20856;-65
2021/04/23 08:13:28;;;;;;;11.50;4.93;;;13.60;99.90;;;;;;5033910;28;20178;-63
2021/04/23 08:15:54;;;;;;;6.53;4.67;;;13.80;99.90;;;;;;5033834;28;20657;-63
2021/04/23 08:18:20;;;;;;;5.80;4.07;;;14.00;99.90;;;;;;5032308;28;20274;-64
2021/04/23 08:20:47;;;;;;;7.53;4.07;;;14.30;99.90;;;;;;5028301;28;20183;-63
2021/04/23 08:23:13;;;;;;;9.87;5.20;;;14.40;99.90;;;;;;5033472;28;20206;-63
2021/04/23 08:25:39;;;;;;;9.27;4.10;;;14.10;99.90;;;;;;5033395;28;20210;-63
2021/04/23 08:28:04;;;;;;;7.93;4.73;;;14.10;99.90;;;;;;5033558;28;20656;-64
2021/04/23 08:30:30;;;;;;;8.30;4.40;;;14.00;99.90;;;;;;5033313;28;20172;-64
2021/04/23 08:32:57;;;;;;;8.87;4.30;;;14.10;99.90;;;;;;5033542;28;20266;-64
2021/04/23 08:35:24;;;;;;;9.17;4.63;;;14.30;99.90;;;;;;5033572;28;20187;-64
2021/04/23 08:37:50;;;;;;;10.47;4.10;;;14.30;99.90;;;;;;5033330;28;20210;-64
2021/04/23 08:40:17;;;;;;;7.20;4.10;;;15.00;99.90;;;;;;5032824;28;20203;-63
2021/04/23 08:42:43;;;;;;;10.50;4.73;;;15.40;99.90;;;;;;5033320;28;20280;-63
2021/04/23 08:45:16;;;;;;;7.87;3.83;;;15.20;99.90;;;;;;5032990;28;20254;-64
2021/04/23 08:47:43;;;;;;;7.07;4.30;;;15.20;99.90;;;;;;5033157;28;20183;-64
2021/04/23 08:50:10;;;;;;;9.90;3.87;;;15.60;99.90;;;;;;5033244;28;20167;-63
2021/04/23 08:52:36;;;;;;;6.70;3.70;;;15.70;99.90;;;;;;5032998;28;20543;-64
2021/04/23 08:55:04;;;;;;;6.33;4.00;;;15.80;99.90;;;;;;5033039;28;20176;-64
2021/04/23 08:57:29;;;;;;;7.63;4.10;;;15.80;99.90;;;;;;5032744;28;20233;-64
2021/04/23 08:59:55;;;;;;;8.67;4.23;;;15.90;99.90;;;;;;5032680;28;20179;-63
2021/04/23 09:02:21;;;;;;;8.30;3.80;;;15.90;99.90;;;;;;5032335;28;20184;-64
2021/04/23 09:04:46;;;;;;;6.65;3.42;;;16.50;99.90;;;;;;5032835;28;20171;-64
2021/04/23 09:07:12;;;;;;;5.25;4.32;;;17.00;99.90;;;;;;5031513;28;20680;-63
2021/04/23 09:09:40;;;;;;;8.47;3.87;;;16.70;99.90;;;;;;5032779;28;20590;-64
2021/04/23 09:12:36;;;;;;;7.80;3.67;;;16.30;99.90;;;;;;5032263;28;20171;-63
2021/04/23 09:15:02;;;;;;;8.30;3.90;;;15.80;99.90;;;;;;5015698;28;20190;-65
2021/04/23 09:17:29;;;;;;;10.40;3.90;;;15.70;99.90;;;;;;5032425;28;20171;-66
2021/04/23 09:19:56;;;;;;;6.40;4.03;;;16.00;99.90;;;;;;5032624;28;20258;-66
2021/04/23 09:22:27;;;;;;;7.87;3.87;;;16.20;99.90;;;;;;5032368;28;20183;-65
2021/04/23 09:24:59;;;;;;;6.67;3.90;;;15.90;99.90;;;;;;5032516;28;20211;-63
2021/04/23 09:27:29;;;;;;;7.27;4.33;;;16.10;99.90;;;;;;5079387;22;20235;-64
2021/04/23 09:29:58;;;;;;;7.15;4.68;;;16.30;99.90;;;;;;5021505;28;20216;-64
2021/04/23 09:32:34;;;;;;;6.97;4.47;;;16.70;99.90;;;;;;5016066;28;20191;-63
2021/04/23 09:35:04;;;;;;;9.82;4.30;;;17.20;99.90;;;;;;5012188;28;20620;-64
2021/04/23 09:37:39;;;;;;;9.15;3.67;;;17.40;99.90;;;;;;5011984;28;20291;-64
2021/04/23 09:40:11;;;;;;;5.88;3.58;;;17.60;99.90;;;;;;5012276;28;20269;-64
2021/04/23 09:42:46;;;;;;;7.90;4.72;;;17.30;99.90;;;;;;5012120;28;20303;-65
2021/04/23 09:45:13;;;;;;;6.75;4.03;;;17.30;99.30;;;;;;5012122;28;20277;-64
2021/04/23 09:47:39;;;;;;;8.80;3.25;;;17.70;99.90;;;;;;5011394;28;20581;-64
2021/04/23 09:50:06;;;;;;;6.45;3.65;;;18.30;99.90;;;;;;5012146;28;20173;-64
2021/04/23 09:52:32;;;;;;;6.97;4.15;;;18.30;98.70;;;;;;5012298;28;20574;-64
2021/04/23 09:55:03;;;;;;;8.38;4.15;;;18.00;97.80;;;;;;5012402;28;20183;-64
2021/04/23 09:57:33;;;;;;;6.40;4.07;;;17.60;99.00;;;;;;5011906;28;20211;-65
2021/04/23 10:00:02;;;;;;;6.35;3.97;;;17.90;99.90;;;;;;5012248;28;20672;-64
2021/04/23 10:02:30;;;;;;;6.57;3.85;;;18.10;98.80;;;;;;5011957;28;20222;-64
2021/04/23 10:04:56;;;;;;;7.75;4.05;;;18.50;98.40;;;;;;5012306;28;20164;-64
2021/04/23 10:07:31;;;;;;;5.72;3.47;;;18.90;99.10;;;;;;5011677;28;20199;-65
2021/04/23 10:10:06;;;;;;;7.65;3.72;;;18.90;99.20;;;;;;5012834;28;20583;-64
2021/04/23 10:12:42;;;;;;;6.32;3.83;;;19.20;97.40;;;;;;5012379;28;20186;-64
2021/04/23 10:15:25;;;;;;;8.43;3.65;;;19.00;96.20;;;;;;5011754;28;20171;-64
2021/04/23 10:17:59;;;;;;;5.90;3.47;;;18.70;96.40;;;;;;5012293;28;20222;-64
2021/04/23 10:20:46;;;;;;;7.60;3.58;;;18.80;94.60;;;;;;5011222;28;20190;-64
2021/04/23 10:23:18;;;;;;;5.25;4.00;;;18.70;95.20;;;;;;5011690;28;20227;-64
2021/04/23 10:25:44;;;;;;;8.73;4.22;;;18.90;93.20;;;;;;5011840;28;20164;-64
2021/04/23 10:28:12;;;;;;;9.20;4.40;;;19.30;95.10;;;;;;5011852;28;20170;-63
2021/04/23 10:30:41;;;;;;;8.90;4.10;;;19.20;95.90;;;;;;5010446;28;20168;-64
2021/04/23 10:33:11;;;;;;;6.65;3.92;;;19.60;95.50;;;;;;5011427;28;20604;-64
2021/04/23 10:35:40;;;;;;;12.25;4.47;;;19.30;93.10;;;;;;5012006;28;20199;-64
2021/04/23 10:38:07;;;;;;;11.05;4.80;;;18.70;94.00;;;;;;5012287;28;20565;-64
2021/04/23 10:40:33;;;;;;;6.53;4.25;;;18.20;94.60;;;;;;5011702;28;20234;-64
2021/04/23 10:43:14;;;;;;;7.82;4.00;;;18.30;93.90;;;;;;5011751;28;20223;-64
2021/04/23 10:46:00;;;;;;;6.77;4.17;;;18.30;93.10;;;;;;5011732;28;20258;-64
2021/04/23 10:48:37;;;;;;;10.63;4.40;;;18.00;94.20;;;;;;5015763;28;20837;-64
2021/04/23 10:51:20;;;;;;;7.90;4.63;;;18.20;97.30;;;;;;5015646;28;20175;-64
2021/04/23 10:53:54;;;;;;;10.00;4.40;;;18.60;95.90;;;;;;5015856;28;20187;-63
2021/04/23 10:56:22;;;;;;;8.27;4.55;;;19.20;94.30;;;;;;5015857;28;20195;-65
2021/04/23 10:58:48;;;;;;;9.40;4.10;;;19.70;92.90;;;;;;5015985;28;20168;-63
2021/04/23 11:01:14;;;;;;;7.50;4.32;;;19.70;93.90;;;;;;5015233;28;20207;-64
2021/04/23 11:03:44;;;;;;;11.95;4.97;;;19.70;93.60;;;;;;5015734;28;20224;-63
2021/04/23 11:06:12;;;;;;;12.73;4.88;;;19.20;93.00;;;;;;5015898;28;20192;-64
2021/04/23 11:08:38;;;;;;;8.65;4.10;;;18.70;93.90;;;;;;5015880;28;20688;-64
2021/04/23 11:11:13;;;;;;;10.13;4.90;;;18.60;95.00;;;;;;5015401;28;20700;-64
2021/04/23 11:13:45;;;;;;;7.75;4.60;;;18.90;94.90;;;;;;5015172;28;20198;-63
2021/04/23 11:16:20;;;;;;;8.15;4.80;;;19.00;94.10;;;;;;5015441;28;20227;-63
2021/04/23 11:18:52;;;;;;;9.73;4.90;;;18.60;92.20;;;;;;5015638;28;20267;-63
2021/04/23 11:21:30;;;;;;;7.97;4.57;;;18.00;92.90;;;;;;5015209;28;20176;-64
2021/04/23 11:24:15;;;;;;;8.93;4.50;;;17.90;93.30;;;;;;5015449;28;20731;-63
2021/04/23 11:27:05;;;;;;;8.18;4.57;;;18.30;93.80;;;;;;5015010;28;20211;-64
2021/04/23 11:29:41;;;;;;;9.25;4.50;;;18.50;91.80;;;;;;5015460;28;20268;-64
2021/04/23 11:32:10;;;;;;;7.38;4.68;;;18.50;92.70;;;;;;5015028;28;20172;-64
2021/04/23 11:34:41;;;;;;;5.97;4.55;;;18.70;93.70;;;;;;5014618;28;20184;-64
2021/04/23 11:37:39;;;;;;;9.00;4.13;;;19.30;95.60;;;;;;5014587;28;20841;-65
2021/04/23 11:40:28;;;;;;;9.02;4.63;;;19.30;93.40;;;;;;5014788;28;20264;-65
2021/04/23 11:42:56;;;;;;;6.20;4.10;;;19.80;92.50;;;;;;5014747;28;20188;-64
2021/04/23 11:45:29;;;;;;;9.95;4.85;;;20.20;92.50;;;;;;5014511;28;20168;-64
2021/04/23 11:48:06;;;;;;;9.20;4.57;;;19.70;92.40;;;;;;5014909;28;20192;-64
2021/04/23 11:50:35;;;;;;;12.05;4.80;;;19.40;93.40;;;;;;5014507;28;20196;-64
2021/04/23 11:53:06;;;;;;;10.18;4.55;;;19.60;94.30;;;;;;5014851;28;20174;-64
2021/04/23 11:55:43;;;;;;;8.27;4.38;;;19.60;94.00;;;;;;5014726;28;20180;-64
2021/04/23 11:58:11;;;;;;;9.32;5.25;;;20.00;92.50;;;;;;5014108;28;20214;-64
2021/04/23 12:00:39;;;;;;;11.02;4.63;;;20.10;92.00;;;;;;5014299;28;20707;-64
2021/04/23 12:03:10;;;;;;;8.73;5.05;;;20.50;92.10;;;;;;5014407;28;20184;-64
2021/04/23 12:05:46;;;;;;;10.05;5.43;;;20.70;91.50;;;;;;5014397;28;20204;-64
2021/04/23 12:08:11;;;;;;;8.07;5.00;;;20.10;91.30;;;;;;5014269;28;20176;-64
2021/04/23 12:10:41;;;;;;;6.25;3.90;;;19.80;91.90;;;;;;5013387;28;20195;-64
2021/04/23 12:13:24;;;;;;;10.02;4.90;;;19.80;90.40;;;;;;5014142;28;20172;-64
2021/04/23 12:15:59;;;;;;;9.52;3.90;;;20.00;88.90;;;;;;5013304;28;20188;-64
2021/04/23 12:18:26;;;;;;;6.82;3.78;;;20.20;89.00;;;;;;5014095;28;20221;-64
2021/04/23 12:21:00;;;;;;;9.15;4.03;;;20.30;90.90;;;;;;5013672;28;20207;-64
2021/04/23 12:23:31;;;;;;;12.07;4.55;;;20.60;90.70;;;;;;5012876;28;20196;-64
2021/04/23 12:26:02;;;;;;;11.40;4.18;;;20.60;86.60;;;;;;5013931;28;20681;-63
2021/04/23 12:28:33;;;;;;;8.65;4.20;;;20.30;90.50;;;;;;5012804;28;20172;-64
2021/04/23 12:31:07;;;;;;;9.15;4.38;;;19.90;91.20;;;;;;4994125;28;20658;-64
2021/04/23 12:33:53;;;;;;;8.48;4.22;;;20.30;91.80;;;;;;5012630;28;20190;-64
2021/04/23 12:36:18;;;;;;;8.65;3.95;;;20.30;91.60;;;;;;5012623;28;20630;-64
2021/04/23 12:38:47;;;;;;;8.18;4.38;;;20.20;90.50;;;;;;5013632;28;20215;-64
2021/04/23 12:41:35;;;;;;;8.80;4.40;;;20.40;88.30;;;;;;5012297;28;20180;-64
2021/04/23 12:44:11;;;;;;;8.48;4.30;;;20.70;86.90;;;;;;5013758;28;20200;-64
2021/04/23 12:47:01;;;;;;;7.90;4.65;;;21.10;90.90;;;;;;5013572;28;20286;-64
2021/04/23 12:49:32;;;;;;;7.57;4.13;;;21.70;87.70;;;;;;5004743;28;20188;-65
2021/04/23 12:52:21;;;;;;;8.80;4.22;;;21.70;87.20;;;;;;5013066;28;20263;-65
2021/04/23 12:54:52;;;;;;;9.73;5.47;;;21.80;90.10;;;;;;5012701;28;20191;-64